Time;durP1;ratioP1;P1;durP2;ratioP2;P2;SDS_P1;SDS_P2;PMS_P1;PMS_P2;Temp;Humidity;BMP_temperature;BMP_pressure;BME280_temperature;BME280_humidity;BME280_pressure;Samples;Min_cycle;Max_cycle;Signal;HPM_P1;HPM_P2
2021/07/15 00:00:36;;;;;;;3.03;2.70;;;;;;;;;;3582049;40;20769;-80
2021/07/15 00:03:05;;;;;;;5.97;3.00;;;;;;;;;;3582320;40;20266;-82
2021/07/15 00:05:33;;;;;;;2.30;2.20;;;;;;;;;;3582303;40;20219;-80
2021/07/15 00:08:01;;;;;;;2.83;2.63;;;;;;;;;;3573800;40;20235;-79
2021/07/15 00:10:32;;;;;;;2.45;2.22;;;;;;;;;;3582148;40;20258;-81
2021/07/15 00:13:00;;;;;;;2.55;2.35;;;;;;;;;;3582295;40;20205;-81
2021/07/15 00:15:28;;;;;;;5.25;2.67;;;;;;;;;;3582263;40;20258;-80
2021/07/15 00:17:55;;;;;;;2.50;2.17;;;;;;;;;;3581983;40;20231;-81
2021/07/15 00:20:23;;;;;;;3.13;2.45;;;;;;;;;;3582120;40;20247;-79
2021/07/15 00:22:51;;;;;;;2.42;2.25;;;;;;;;;;3573642;40;20247;-79
2021/07/15 00:25:19;;;;;;;4.70;2.78;;;;;;;;;;3576747;40;20265;-79
2021/07/15 00:27:48;;;;;;;9.35;2.70;;;;;;;;;;3592143;40;20234;-80
2021/07/15 00:30:16;;;;;;;3.88;2.80;;;;;;;;;;3592074;40;20256;-80
2021/07/15 00:32:44;;;;;;;7.10;3.75;;;;;;;;;;3575782;40;20243;-80
2021/07/15 00:35:12;;;;;;;4.15;3.00;;;;;;;;;;3593522;40;20223;-81
2021/07/15 00:37:40;;;;;;;5.78;3.80;;;;;;;;;;3593674;40;20238;-79
2021/07/15 00:40:14;;;;;;;8.85;3.40;;;;;;;;;;3593603;40;20249;-80
2021/07/15 00:42:42;;;;;;;7.32;3.35;;;;;;;;;;3593610;40;20231;-84
2021/07/15 00:45:12;;;;;;;3.53;2.63;;;;;;;;;;3593117;40;20227;-80
2021/07/15 00:47:39;;;;;;;10.32;3.88;;;;;;;;;;3593253;40;20247;-83
2021/07/15 00:50:08;;;;;;;4.35;3.38;;;;;;;;;;3593040;40;20243;-79
2021/07/15 00:52:35;;;;;;;4.47;3.28;;;;;;;;;;3584937;40;20773;-80
2021/07/15 00:55:03;;;;;;;7.25;3.08;;;;;;;;;;3576604;40;20235;-88
2021/07/15 00:57:31;;;;;;;4.88;3.13;;;;;;;;;;3593630;40;20643;-81
2021/07/15 00:59:58;;;;;;;7.25;3.13;;;;;;;;;;3593456;40;20234;-80
2021/07/15 01:02:27;;;;;;;8.30;3.42;;;;;;;;;;3593446;40;20231;-82
2021/07/15 01:04:54;;;;;;;5.90;3.72;;;;;;;;;;3593607;40;20234;-79
2021/07/15 01:07:22;;;;;;;5.80;3.28;;;;;;;;;;3593379;40;20247;-80
2021/07/15 01:09:49;;;;;;;3.47;3.22;;;;;;;;;;3593381;40;20231;-84
2021/07/15 01:12:22;;;;;;;4.85;3.63;;;;;;;;;;3576721;40;20227;-83
2021/07/15 01:14:57;;;;;;;7.28;3.95;;;;;;;;;;3593380;40;20238;-83
2021/07/15 01:17:27;;;;;;;10.80;3.63;;;;;;;;;;3576544;40;20226;-79
2021/07/15 01:20:15;;;;;;;4.43;3.35;;;;;;;;;;3593266;40;20235;-85
2021/07/15 01:22:45;;;;;;;14.85;4.20;;;;;;;;;;3584742;40;20301;-81
2021/07/15 01:25:34;;;;;;;10.77;4.97;;;;;;;;;;3593318;40;20235;-79
2021/07/15 01:28:05;;;;;;;13.25;3.70;;;;;;;;;;3583058;40;20235;-85
2021/07/15 01:30:35;;;;;;;8.80;3.50;;;;;;;;;;3583198;40;20280;-79
2021/07/15 01:33:08;;;;;;;7.75;3.13;;;;;;;;;;3574697;40;20255;-81
2021/07/15 01:35:42;;;;;;;9.82;3.20;;;;;;;;;;3574526;40;20244;-80
2021/07/15 01:38:09;;;;;;;6.72;3.47;;;;;;;;;;3583291;40;20688;-81
2021/07/15 01:40:41;;;;;;;5.40;3.20;;;;;;;;;;3583128;40;20292;-81
2021/07/15 01:43:11;;;;;;;10.35;3.85;;;;;;;;;;3574681;40;20411;-80
2021/07/15 01:45:40;;;;;;;3.95;3.30;;;;;;;;;;3574191;40;20286;-80
2021/07/15 01:48:09;;;;;;;7.82;4.18;;;;;;;;;;3574433;40;20240;-81
2021/07/15 01:50:37;;;;;;;11.38;4.35;;;;;;;;;;3583035;40;20279;-79
2021/07/15 01:53:04;;;;;;;7.15;3.45;;;;;;;;;;3583166;40;20844;-79
2021/07/15 01:55:32;;;;;;;6.72;3.88;;;;;;;;;;3583144;40;20235;-80
2021/07/15 01:58:01;;;;;;;5.88;3.35;;;;;;;;;;3574653;40;20228;-84
2021/07/15 02:00:29;;;;;;;8.05;3.60;;;;;;;;;;3582859;40;20737;-80
2021/07/15 02:02:58;;;;;;;9.07;3.33;;;;;;;;;;3583129;40;20235;-83
2021/07/15 02:05:26;;;;;;;8.43;4.20;;;;;;;;;;3583054;40;20235;-80
2021/07/15 02:07:54;;;;;;;11.07;3.08;;;;;;;;;;3583048;40;20254;-81
2021/07/15 02:10:24;;;;;;;6.35;3.33;;;;;;;;;;3582902;40;20250;-80
2021/07/15 02:12:52;;;;;;;6.60;3.13;;;;;;;;;;3574555;40;20277;-79
2021/07/15 02:15:20;;;;;;;14.38;3.33;;;;;;;;;;3574409;40;20232;-81
2021/07/15 02:17:48;;;;;;;2.80;2.60;;;;;;;;;;3574454;40;20242;-81
2021/07/15 02:20:18;;;;;;;6.07;3.58;;;;;;;;;;3582898;40;20251;-81
2021/07/15 02:22:46;;;;;;;11.45;3.42;;;;;;;;;;3580177;39;20282;-80
2021/07/15 02:25:13;;;;;;;16.90;4.13;;;;;;;;;;3584282;40;20250;-81
2021/07/15 02:27:42;;;;;;;8.63;3.72;;;;;;;;;;3580199;40;20787;-81
2021/07/15 02:30:11;;;;;;;4.90;3.15;;;;;;;;;;3584114;40;20262;-83
2021/07/15 02:32:38;;;;;;;4.88;4.18;;;;;;;;;;3592980;40;20235;-82
2021/07/15 02:35:08;;;;;;;8.30;3.30;;;;;;;;;;3584209;40;20246;-82
2021/07/15 02:37:38;;;;;;;14.38;4.18;;;;;;;;;;3592851;40;20238;-82
2021/07/15 02:40:07;;;;;;;12.45;4.22;;;;;;;;;;3584046;40;20301;-81
2021/07/15 02:42:34;;;;;;;7.53;4.05;;;;;;;;;;3592941;40;20459;-80
2021/07/15 02:45:02;;;;;;;12.55;3.58;;;;;;;;;;3592890;40;20800;-82
2021/07/15 02:47:29;;;;;;;10.75;3.72;;;;;;;;;;3592763;40;20243;-82
2021/07/15 02:49:56;;;;;;;8.10;4.18;;;;;;;;;;3584133;40;20234;-83
2021/07/15 02:52:24;;;;;;;16.50;4.78;;;;;;;;;;3592825;40;20235;-87
2021/07/15 02:54:53;;;;;;;16.77;4.82;;;;;;;;;;3592766;40;20254;-85
2021/07/15 02:57:25;;;;;;;10.70;4.13;;;;;;;;;;3592788;40;20239;-80
2021/07/15 02:59:56;;;;;;;9.30;4.35;;;;;;;;;;3583995;40;20231;-86
2021/07/15 03:02:26;;;;;;;16.90;5.82;;;;;;;;;;3592833;40;20235;-83
2021/07/15 03:04:58;;;;;;;12.88;5.15;;;;;;;;;;3592738;40;20239;-85
2021/07/15 03:07:26;;;;;;;19.27;5.28;;;;;;;;;;3592746;40;20817;-84
2021/07/15 03:09:56;;;;;;;18.42;4.45;;;;;;;;;;3592646;40;20843;-82
2021/07/15 03:12:25;;;;;;;8.00;4.93;;;;;;;;;;3592772;40;20236;-82
2021/07/15 03:14:53;;;;;;;10.43;4.07;;;;;;;;;;3592649;40;20239;-81
2021/07/15 03:17:24;;;;;;;10.43;4.75;;;;;;;;;;3592722;40;20448;-84
2021/07/15 03:19:53;;;;;;;10.25;5.38;;;;;;;;;;3583979;40;20727;-87
2021/07/15 03:22:21;;;;;;;7.82;4.60;;;;;;;;;;3592702;40;20215;-84
2021/07/15 03:24:52;;;;;;;11.77;4.40;;;;;;;;;;3592620;40;20285;-84
2021/07/15 03:27:21;;;;;;;16.65;6.25;;;;;;;;;;3584063;40;20907;-82
2021/07/15 03:29:49;;;;;;;9.10;4.10;;;;;;;;;;3582397;40;20227;-81
2021/07/15 03:32:17;;;;;;;14.55;5.57;;;;;;;;;;3582497;40;20243;-82
2021/07/15 03:34:45;;;;;;;5.82;4.93;;;;;;;;;;3582609;40;20235;-80
2021/07/15 03:37:12;;;;;;;9.02;5.00;;;;;;;;;;3582541;40;20224;-82
2021/07/15 03:39:40;;;;;;;17.13;4.90;;;;;;;;;;3582394;40;20250;-82
2021/07/15 03:42:08;;;;;;;14.60;6.07;;;;;;;;;;3565680;40;20243;-81
2021/07/15 03:44:38;;;;;;;11.88;5.05;;;;;;;;;;3573954;40;20227;-84
2021/07/15 03:47:06;;;;;;;12.02;4.80;;;;;;;;;;3573817;40;20227;-83
2021/07/15 03:49:34;;;;;;;13.00;5.68;;;;;;;;;;3573800;40;20247;-82
2021/07/15 03:52:01;;;;;;;14.63;5.43;;;;;;;;;;3582441;40;20231;-82
2021/07/15 03:54:29;;;;;;;6.53;4.85;;;;;;;;;;3582525;40;20212;-83
2021/07/15 03:56:57;;;;;;;14.57;5.00;;;;;;;;;;3582378;40;20223;-82
2021/07/15 03:59:25;;;;;;;15.30;4.97;;;;;;;;;;3582304;40;20309;-82
2021/07/15 04:01:58;;;;;;;14.75;6.75;;;;;;;;;;3573943;40;20224;-85
2021/07/15 04:04:26;;;;;;;8.73;4.25;;;;;;;;;;3582385;40;20240;-84
2021/07/15 04:06:54;;;;;;;8.25;4.07;;;;;;;;;;3581718;40;20244;-88
2021/07/15 04:09:22;;;;;;;14.13;5.15;;;;;;;;;;3582130;40;20876;-82
2021/07/15 04:11:50;;;;;;;8.07;4.57;;;;;;;;;;3582290;40;20247;-82
2021/07/15 04:14:23;;;;;;;8.95;3.85;;;;;;;;;;3582249;40;20248;-84
2021/07/15 04:16:56;;;;;;;12.75;3.58;;;;;;;;;;3580450;40;20296;-82
2021/07/15 04:19:25;;;;;;;7.85;4.60;;;;;;;;;;3591169;40;20235;-88
2021/07/15 04:21:54;;;;;;;7.80;4.75;;;;;;;;;;3583689;40;20270;-83
2021/07/15 04:24:22;;;;;;;17.02;5.05;;;;;;;;;;3592267;40;20226;-84
2021/07/15 04:26:51;;;;;;;5.93;4.38;;;;;;;;;;3583573;40;20235;-84
2021/07/15 04:29:19;;;;;;;6.45;3.60;;;;;;;;;;3592103;40;20706;-82
2021/07/15 04:31:51;;;;;;;15.82;4.78;;;;;;;;;;3583499;40;20227;-82
2021/07/15 04:34:20;;;;;;;9.93;3.70;;;;;;;;;;3586890;40;20232;-82
2021/07/15 04:36:50;;;;;;;6.90;3.90;;;;;;;;;;3582071;40;20236;-83
2021/07/15 04:39:18;;;;;;;12.88;4.45;;;;;;;;;;3582055;40;20235;-81
2021/07/15 04:41:46;;;;;;;11.30;2.85;;;;;;;;;;3573465;40;20235;-85
2021/07/15 04:44:14;;;;;;;10.55;4.47;;;;;;;;;;3573414;40;20314;-81
2021/07/15 04:46:42;;;;;;;8.25;4.07;;;;;;;;;;3565224;40;20220;-81
2021/07/15 04:49:10;;;;;;;10.23;4.55;;;;;;;;;;3581916;40;20247;-82
2021/07/15 04:51:39;;;;;;;7.07;3.97;;;;;;;;;;3573390;40;20239;-84
2021/07/15 04:54:09;;;;;;;11.20;5.18;;;;;;;;;;3581496;40;20247;-83
2021/07/15 04:56:37;;;;;;;12.73;4.47;;;;;;;;;;3581870;40;20270;-83
2021/07/15 04:59:05;;;;;;;7.45;4.05;;;;;;;;;;3581825;40;20247;-83
2021/07/15 05:01:32;;;;;;;12.40;4.45;;;;;;;;;;3581836;40;20301;-81
2021/07/15 05:04:00;;;;;;;9.82;5.03;;;;;;;;;;3573259;40;20255;-84
2021/07/15 05:06:27;;;;;;;7.38;3.95;;;;;;;;;;3573287;40;20220;-81
2021/07/15 05:08:54;;;;;;;6.03;4.95;;;;;;;;;;3581838;40;20298;-81
2021/07/15 05:11:23;;;;;;;6.80;3.92;;;;;;;;;;3581615;40;20255;-85
2021/07/15 05:13:51;;;;;;;7.70;3.90;;;;;;;;;;3581855;40;20270;-80
2021/07/15 05:16:18;;;;;;;8.70;3.80;;;;;;;;;;3581709;40;20232;-81
2021/07/15 05:18:46;;;;;;;5.68;4.00;;;;;;;;;;3582153;40;20721;-82
2021/07/15 05:21:13;;;;;;;5.93;4.03;;;;;;;;;;3583188;40;20239;-82
2021/07/15 05:23:40;;;;;;;4.93;3.65;;;;;;;;;;3583044;40;20258;-82
2021/07/15 05:26:08;;;;;;;3.65;3.33;;;;;;;;;;3574917;40;20223;-83
2021/07/15 05:28:37;;;;;;;8.00;4.57;;;;;;;;;;3574678;40;20223;-81
2021/07/15 05:31:04;;;;;;;12.02;5.78;;;;;;;;;;3587125;40;20258;-83
2021/07/15 05:33:31;;;;;;;4.60;3.45;;;;;;;;;;3593265;40;20215;-84
2021/07/15 05:35:59;;;;;;;5.78;3.63;;;;;;;;;;3584615;40;20243;-83
2021/07/15 05:38:26;;;;;;;5.65;2.88;;;;;;;;;;3584610;40;20222;-81
2021/07/15 05:40:54;;;;;;;6.75;3.15;;;;;;;;;;3592898;40;20768;-82
2021/07/15 05:43:21;;;;;;;5.68;2.67;;;;;;;;;;3593057;40;20234;-82
2021/07/15 05:45:50;;;;;;;5.97;2.67;;;;;;;;;;3592501;40;20240;-83
2021/07/15 05:48:17;;;;;;;6.13;3.33;;;;;;;;;;3593076;40;20801;-81
2021/07/15 05:50:44;;;;;;;5.28;2.35;;;;;;;;;;3592983;40;20235;-82
2021/07/15 05:53:12;;;;;;;2.45;2.20;;;;;;;;;;3592680;40;20267;-80
2021/07/15 05:55:39;;;;;;;4.70;2.85;;;;;;;;;;3585235;40;20238;-79
2021/07/15 05:58:08;;;;;;;4.93;2.60;;;;;;;;;;3579503;40;20223;-78
2021/07/15 06:00:36;;;;;;;2.63;2.42;;;;;;;;;;3588875;40;20518;-79
2021/07/15 06:03:05;;;;;;;6.35;2.80;;;;;;;;;;3588623;40;20614;-78
2021/07/15 06:05:33;;;;;;;11.40;3.80;;;;;;;;;;3587827;40;20247;-79
2021/07/15 06:08:01;;;;;;;5.88;3.05;;;;;;;;;;3588130;40;20267;-79
2021/07/15 06:10:29;;;;;;;4.07;2.47;;;;;;;;;;3586517;40;20313;-78
2021/07/15 06:12:56;;;;;;;2.53;2.33;;;;;;;;;;3589012;40;20215;-79
2021/07/15 06:15:24;;;;;;;2.75;2.53;;;;;;;;;;3591640;40;20236;-78
2021/07/15 06:17:52;;;;;;;2.33;2.05;;;;;;;;;;3583444;40;20223;-78
2021/07/15 06:20:24;;;;;;;3.63;1.92;;;;;;;;;;3591759;40;20607;-79
2021/07/15 06:22:51;;;;;;;5.32;2.47;;;;;;;;;;3582508;40;20243;-80
2021/07/15 06:25:19;;;;;;;2.75;2.40;;;;;;;;;;3582320;40;20246;-78
2021/07/15 06:27:46;;;;;;;3.35;2.60;;;;;;;;;;3591623;40;20260;-78
2021/07/15 06:30:15;;;;;;;5.55;2.70;;;;;;;;;;3590618;40;20251;-79
2021/07/15 06:32:42;;;;;;;7.78;2.65;;;;;;;;;;3589322;40;20476;-79
2021/07/15 06:35:10;;;;;;;3.25;2.75;;;;;;;;;;3574974;40;20814;-78
2021/07/15 06:37:40;;;;;;;4.72;2.53;;;;;;;;;;3591726;40;20230;-79
2021/07/15 06:40:08;;;;;;;3.67;2.10;;;;;;;;;;3591787;40;20291;-79
2021/07/15 06:42:35;;;;;;;3.63;2.15;;;;;;;;;;3589038;40;20238;-79
2021/07/15 06:45:04;;;;;;;3.28;2.40;;;;;;;;;;3585760;40;20235;-79
2021/07/15 06:47:31;;;;;;;2.58;1.77;;;;;;;;;;3582423;40;20235;-79
2021/07/15 06:49:59;;;;;;;2.60;2.00;;;;;;;;;;3589206;40;20243;-79
2021/07/15 06:52:29;;;;;;;3.35;2.40;;;;;;;;;;3591514;40;20587;-82
2021/07/15 06:55:00;;;;;;;2.63;1.98;;;;;;;;;;3582077;40;20247;-80
2021/07/15 06:57:28;;;;;;;4.53;3.83;;;;;;;;;;3591403;40;20662;-80
2021/07/15 06:59:55;;;;;;;2.80;2.60;;;;;;;;;;3591233;40;20261;-80
2021/07/15 07:02:22;;;;;;;3.38;1.77;;;;;;;;;;3591225;40;20238;-79
2021/07/15 07:04:50;;;;;;;2.65;1.70;;;;;;;;;;3591063;40;20243;-80
2021/07/15 07:07:17;;;;;;;2.47;1.50;;;;;;;;;;3591221;40;20239;-79
2021/07/15 07:09:44;;;;;;;4.18;1.67;;;;;;;;;;3591669;40;20748;-81
2021/07/15 07:12:13;;;;;;;2.20;1.60;;;;;;;;;;3583262;40;20573;-79
2021/07/15 07:14:40;;;;;;;2.42;1.50;;;;;;;;;;3590863;39;20230;-80
2021/07/15 07:17:08;;;;;;;3.30;1.35;;;;;;;;;;3591792;39;20239;-82
2021/07/15 07:19:36;;;;;;;3.53;1.42;;;;;;;;;;3591669;39;20254;-78
2021/07/15 07:22:03;;;;;;;1.63;1.52;;;;;;;;;;3583015;39;20234;-78
2021/07/15 07:24:31;;;;;;;1.55;1.45;;;;;;;;;;3591796;39;20236;-78
2021/07/15 07:26:58;;;;;;;1.42;1.38;;;;;;;;;;3591977;39;20319;-84
2021/07/15 07:29:26;;;;;;;3.67;2.25;;;;;;;;;;3583229;40;20546;-79
2021/07/15 07:31:54;;;;;;;0.95;0.95;;;;;;;;;;3582864;40;20249;-79
2021/07/15 07:34:21;;;;;;;1.20;1.10;;;;;;;;;;3591950;39;20220;-80
2021/07/15 07:36:48;;;;;;;0.75;0.75;;;;;;;;;;3591590;39;20235;-81
2021/07/15 07:39:16;;;;;;;3.63;1.65;;;;;;;;;;3591805;39;20234;-86
2021/07/15 07:41:43;;;;;;;1.38;1.27;;;;;;;;;;3591489;39;20243;-80
2021/07/15 07:44:11;;;;;;;0.65;0.65;;;;;;;;;;3591467;39;20223;-79
2021/07/15 07:46:40;;;;;;;1.20;0.80;;;;;;;;;;3591834;39;20207;-80
2021/07/15 07:49:07;;;;;;;1.30;1.10;;;;;;;;;;3591481;39;20273;-78
2021/07/15 07:51:35;;;;;;;1.65;1.08;;;;;;;;;;3591698;39;20231;-79
2021/07/15 07:54:02;;;;;;;0.90;0.90;;;;;;;;;;3591780;40;20713;-79
2021/07/15 07:56:32;;;;;;;2.00;1.00;;;;;;;;;;3591347;40;20231;-81
2021/07/15 07:59:00;;;;;;;4.75;0.80;;;;;;;;;;3591306;40;20239;-81
2021/07/15 08:01:27;;;;;;;1.60;0.63;;;;;;;;;;3591349;40;20239;-81
2021/07/15 08:03:56;;;;;;;0.80;0.80;;;;;;;;;;3573370;40;20228;-83
2021/07/15 08:06:23;;;;;;;0.73;0.73;;;;;;;;;;3573206;40;20714;-83
2021/07/15 08:08:52;;;;;;;0.50;0.50;;;;;;;;;;3576375;40;20291;-81
2021/07/15 08:11:20;;;;;;;0.80;0.57;;;;;;;;;;3591601;40;20227;-81
2021/07/15 08:13:47;;;;;;;2.15;0.98;;;;;;;;;;3590704;39;20246;-81
2021/07/15 08:16:15;;;;;;;1.70;1.08;;;;;;;;;;3583333;40;20231;-81
2021/07/15 08:18:42;;;;;;;1.10;0.80;;;;;;;;;;3591918;40;20239;-83
2021/07/15 08:21:11;;;;;;;0.95;0.95;;;;;;;;;;3591680;40;20239;-81
2021/07/15 08:23:38;;;;;;;0.95;0.95;;;;;;;;;;3583121;40;20270;-81
2021/07/15 08:26:05;;;;;;;1.23;1.00;;;;;;;;;;3591905;40;20239;-80
2021/07/15 08:28:33;;;;;;;1.10;1.00;;;;;;;;;;3592057;40;20251;-85
2021/07/15 08:31:01;;;;;;;2.40;1.52;;;;;;;;;;3578041;40;20250;-83
2021/07/15 08:33:29;;;;;;;2.10;1.08;;;;;;;;;;3575089;40;20242;-81
2021/07/15 08:35:56;;;;;;;1.17;0.80;;;;;;;;;;3583218;40;20235;-85
2021/07/15 08:38:25;;;;;;;0.85;0.85;;;;;;;;;;3591933;40;20278;-83
2021/07/15 08:40:53;;;;;;;1.05;0.77;;;;;;;;;;3583198;40;20744;-88
2021/07/15 08:43:21;;;;;;;19.52;1.35;;;;;;;;;;3591839;40;20207;-84
2021/07/15 08:45:49;;;;;;;4.85;1.15;;;;;;;;;;3583092;40;20276;-84
2021/07/15 08:48:17;;;;;;;0.80;0.80;;;;;;;;;;3586767;40;20242;-83
2021/07/15 08:50:45;;;;;;;3.15;1.00;;;;;;;;;;3591141;40;20239;-86
2021/07/15 08:53:13;;;;;;;1.15;0.73;;;;;;;;;;3591983;40;20247;-84
2021/07/15 08:58:28;;;;;;;1.98;0.82;;;;;;;;;;3593005;40;20781;-87
2021/07/15 09:00:55;;;;;;;1.13;0.90;;;;;;;;;;3585709;40;20240;-84
2021/07/15 09:03:22;;;;;;;0.98;0.80;;;;;;;;;;3574641;40;20228;-84
2021/07/15 09:05:50;;;;;;;2.53;0.80;;;;;;;;;;3574361;40;20301;-83
2021/07/15 09:08:18;;;;;;;1.02;0.93;;;;;;;;;;3582720;40;20999;-89
2021/07/15 09:10:46;;;;;;;2.45;0.93;;;;;;;;;;3574464;40;20810;-83
2021/07/15 09:13:14;;;;;;;0.50;0.50;;;;;;;;;;3574586;40;20216;-84
2021/07/15 09:15:47;;;;;;;1.50;0.70;;;;;;;;;;3582945;40;20228;-84
2021/07/15 09:18:14;;;;;;;1.00;0.90;;;;;;;;;;3574643;40;20223;-85
2021/07/15 09:20:42;;;;;;;4.00;0.70;;;;;;;;;;3583008;40;20793;-84
2021/07/15 09:23:11;;;;;;;0.40;0.40;;;;;;;;;;3574497;40;20242;-86
2021/07/15 09:26:00;;;;;;;1.20;0.80;;;;;;;;;;3574593;40;20231;-87
2021/07/15 09:28:32;;;;;;;0.82;0.80;;;;;;;;;;3583637;40;20433;-85
2021/07/15 09:31:14;;;;;;;4.72;0.80;;;;;;;;;;3592776;40;20847;-85
2021/07/15 09:33:42;;;;;;;1.00;0.95;;;;;;;;;;3586448;40;20305;-81
2021/07/15 09:39:02;;;;;;;2.08;1.13;;;;;;;;;;3575850;40;20235;-87
2021/07/15 09:41:31;;;;;;;1.58;0.82;;;;;;;;;;3592847;40;20854;-84
2021/07/15 09:44:03;;;;;;;1.00;1.00;;;;;;;;;;3584227;40;20215;-83
2021/07/15 09:46:30;;;;;;;0.80;0.80;;;;;;;;;;3618642;22;20585;-41
2021/07/15 09:49:08;;;;;;;0.88;0.60;;;;;;;;;;3604433;39;20253;-43
2021/07/15 09:51:40;;;;;;;1.10;1.00;;;;;;;;;;3608244;39;20502;-41
2021/07/15 09:54:08;;;;;;;2.50;1.10;;;;;;;;;;3608744;39;20244;-42
2021/07/15 09:56:44;;;;;;;1.77;1.00;;;;;;;;;;3609192;39;20548;-40
2021/07/15 09:59:12;;;;;;;2.35;1.00;;;;;;;;;;3608804;39;20228;-41
2021/07/15 10:01:46;;;;;;;1.58;1.00;;;;;;;;;;3608268;39;20224;-41
2021/07/15 10:04:21;;;;;;;1.88;1.15;;;;;;;;;;3608385;39;20608;-41
2021/07/15 10:06:50;;;;;;;1.10;0.75;;;;;;;;;;3608997;39;20233;-42
2021/07/15 10:09:21;;;;;;;4.55;1.27;;;;;;;;;;3608725;39;20290;-41
2021/07/15 10:11:54;;;;;;;0.80;0.80;;;;;;;;;;3609116;39;20276;-41
2021/07/15 10:14:31;;;;;;;1.60;1.05;;;;;;;;;;3609252;39;20503;-41
2021/07/15 10:16:58;;;;;;;1.38;0.80;;;;;;;;;;3609520;39;20290;-40
2021/07/15 10:19:26;;;;;;;0.95;0.73;;;;;;;;;;3606411;39;20271;-41
2021/07/15 10:21:56;;;;;;;1.83;0.88;;;;;;;;;;3608836;39;20229;-41
2021/07/15 10:24:25;;;;;;;1.15;0.80;;;;;;;;;;3607528;39;20256;-41
2021/07/15 10:26:55;;;;;;;1.95;0.82;;;;;;;;;;3609157;39;20277;-41
2021/07/15 10:29:23;;;;;;;1.25;1.10;;;;;;;;;;3607954;39;20235;-41
2021/07/15 10:31:51;;;;;;;1.67;0.88;;;;;;;;;;3608878;39;20232;-40
2021/07/15 10:34:19;;;;;;;2.22;0.65;;;;;;;;;;3608881;39;20240;-40
2021/07/15 10:36:46;;;;;;;0.88;0.88;;;;;;;;;;3608863;39;20237;-42
2021/07/15 10:39:15;;;;;;;3.65;1.40;;;;;;;;;;3603697;39;20237;-45
2021/07/15 10:41:44;;;;;;;0.63;0.52;;;;;;;;;;3601884;39;20250;-40
2021/07/15 10:44:13;;;;;;;1.15;0.52;;;;;;;;;;3599160;39;20403;-41
2021/07/15 10:46:40;;;;;;;1.27;0.80;;;;;;;;;;3605982;39;20221;-42
2021/07/15 10:49:09;;;;;;;1.00;0.77;;;;;;;;;;3608693;39;20709;-44
2021/07/15 10:51:37;;;;;;;0.90;0.90;;;;;;;;;;3608818;39;20298;-41
2021/07/15 10:54:05;;;;;;;2.85;1.33;;;;;;;;;;3609312;39;20444;-41
2021/07/15 10:56:32;;;;;;;0.88;0.88;;;;;;;;;;3608399;39;20229;-41
2021/07/15 10:59:03;;;;;;;0.98;0.90;;;;;;;;;;3600705;39;20259;-41
2021/07/15 11:01:40;;;;;;;1.83;1.02;;;;;;;;;;3608451;39;20616;-41
2021/07/15 11:04:08;;;;;;;1.63;0.93;;;;;;;;;;3608486;39;20231;-41
2021/07/15 11:06:40;;;;;;;0.88;0.73;;;;;;;;;;3608597;39;20318;-43
2021/07/15 11:09:10;;;;;;;0.80;0.80;;;;;;;;;;3608593;39;20233;-44
2021/07/15 11:11:39;;;;;;;1.33;0.77;;;;;;;;;;3608809;39;20225;-42
2021/07/15 11:14:06;;;;;;;3.10;0.75;;;;;;;;;;3608532;39;20239;-42
2021/07/15 11:16:51;;;;;;;1.33;0.80;;;;;;;;;;3608257;39;20242;-40
2021/07/15 11:19:37;;;;;;;1.17;0.60;;;;;;;;;;3608463;39;20640;-42
2021/07/15 11:22:04;;;;;;;1.25;0.93;;;;;;;;;;3607951;39;20233;-42
2021/07/15 11:24:53;;;;;;;1.10;1.10;;;;;;;;;;3608801;39;20521;-41
2021/07/15 11:27:31;;;;;;;0.73;0.73;;;;;;;;;;3608956;39;20251;-43
2021/07/15 11:33:41;;;;;;;1.58;0.70;;;;;;;;;;3604266;39;20224;-41
2021/07/15 11:36:12;;;;;;;0.70;0.70;;;;;;;;;;3606124;39;20266;-43
2021/07/15 11:44:58;;;;;;;0.70;0.60;;;;;;;;;;3589155;39;20241;-41
2021/07/15 11:47:44;;;;;;;1.15;1.10;;;;;;;;;;3587555;40;20602;-40
2021/07/15 11:50:26;;;;;;;2.13;0.70;;;;;;;;;;3588765;40;20230;-40
2021/07/15 11:53:09;;;;;;;1.73;0.68;;;;;;;;;;3587995;40;20238;-42
2021/07/15 11:55:37;;;;;;;0.73;0.73;;;;;;;;;;3588738;40;20242;-41
2021/07/15 11:58:05;;;;;;;0.90;0.90;;;;;;;;;;3590804;40;20308;-42
2021/07/15 12:00:33;;;;;;;0.98;0.88;;;;;;;;;;3590760;40;20233;-40
2021/07/15 12:03:01;;;;;;;0.75;0.60;;;;;;;;;;3587576;40;20237;-46
2021/07/15 12:05:30;;;;;;;0.93;0.70;;;;;;;;;;3584269;40;20242;-40
2021/07/15 12:08:05;;;;;;;1.63;0.82;;;;;;;;;;3588616;40;20319;-41
2021/07/15 12:10:35;;;;;;;0.98;0.98;;;;;;;;;;3590568;40;20237;-42
2021/07/15 12:13:05;;;;;;;4.63;1.02;;;;;;;;;;3587729;40;20274;-42
2021/07/15 12:15:33;;;;;;;0.93;0.85;;;;;;;;;;3587796;40;20750;-40
2021/07/15 12:18:02;;;;;;;1.92;0.90;;;;;;;;;;3587905;40;20235;-40
2021/07/15 12:20:36;;;;;;;3.00;0.80;;;;;;;;;;3588443;40;20252;-40
2021/07/15 12:23:13;;;;;;;0.93;0.88;;;;;;;;;;3587934;40;20249;-41
2021/07/15 12:25:41;;;;;;;3.63;0.90;;;;;;;;;;3587870;40;20249;-41
2021/07/15 12:28:10;;;;;;;2.60;0.95;;;;;;;;;;3588016;40;20285;-41
2021/07/15 12:30:48;;;;;;;2.97;1.02;;;;;;;;;;3589144;40;20241;-44
2021/07/15 12:33:17;;;;;;;1.42;0.98;;;;;;;;;;3589223;40;20625;-40
2021/07/15 12:36:08;;;;;;;1.27;0.93;;;;;;;;;;3589739;40;20257;-42
2021/07/15 12:38:49;;;;;;;1.05;0.93;;;;;;;;;;3589650;40;20260;-40
2021/07/15 12:41:18;;;;;;;1.65;0.95;;;;;;;;;;3588749;40;20230;-41
2021/07/15 12:43:56;;;;;;;1.70;0.98;;;;;;;;;;3593122;39;20222;-40
2021/07/15 12:46:30;;;;;;;1.15;0.82;;;;;;;;;;3589708;40;20494;-41
2021/07/15 12:49:04;;;;;;;7.97;2.13;;;;;;;;;;3589483;40;20254;-41
2021/07/15 12:51:51;;;;;;;0.90;0.90;;;;;;;;;;3588711;40;20590;-40
2021/07/15 12:54:20;;;;;;;1.05;1.00;;;;;;;;;;3589107;40;20234;-40
2021/07/15 12:56:53;;;;;;;1.17;1.15;;;;;;;;;;3589198;40;20237;-40
2021/07/15 12:59:28;;;;;;;4.32;1.35;;;;;;;;;;3589289;40;20245;-40
2021/07/15 13:02:08;;;;;;;2.63;1.13;;;;;;;;;;3589019;40;20259;-40
2021/07/15 13:04:41;;;;;;;2.70;0.68;;;;;;;;;;3589614;40;20235;-41
2021/07/15 13:07:21;;;;;;;0.88;0.88;;;;;;;;;;3588984;40;20242;-40
2021/07/15 13:10:09;;;;;;;1.70;0.90;;;;;;;;;;3589105;40;20532;-40
2021/07/15 13:15:58;;;;;;;2.83;0.98;;;;;;;;;;3551995;40;20286;-41
2021/07/15 13:18:27;;;;;;;0.65;0.65;;;;;;;;;;3547034;40;20267;-41
2021/07/15 13:20:55;;;;;;;0.80;0.80;;;;;;;;;;3572502;40;20243;-40
2021/07/15 13:23:23;;;;;;;0.55;0.55;;;;;;;;;;3589100;40;20238;-40
2021/07/15 13:25:51;;;;;;;1.15;1.05;;;;;;;;;;3586154;40;20611;-40
2021/07/15 13:28:24;;;;;;;0.90;0.82;;;;;;;;;;3584676;40;20294;-40
2021/07/15 13:30:52;;;;;;;1.00;0.90;;;;;;;;;;3585370;40;20260;-43
2021/07/15 13:33:42;;;;;;;2.22;0.80;;;;;;;;;;3583988;40;20233;-40
2021/07/15 13:36:16;;;;;;;1.60;0.75;;;;;;;;;;3589286;40;20574;-40
2021/07/15 13:39:02;;;;;;;0.82;0.82;;;;;;;;;;3583656;40;20542;-40
2021/07/15 13:41:30;;;;;;;1.48;0.80;;;;;;;;;;3588696;40;20245;-41
2021/07/15 13:44:08;;;;;;;1.20;1.10;;;;;;;;;;3589067;40;20501;-40
2021/07/15 13:47:01;;;;;;;1.52;1.42;;;;;;;;;;3589539;40;20687;-40
2021/07/15 13:49:52;;;;;;;0.70;0.70;;;;;;;;;;3588742;40;20286;-42
2021/07/15 13:52:23;;;;;;;1.20;0.95;;;;;;;;;;3589382;40;20245;-40
2021/07/15 13:54:50;;;;;;;1.50;1.40;;;;;;;;;;3589323;40;20242;-42
2021/07/15 13:57:19;;;;;;;2.75;1.17;;;;;;;;;;3581743;40;20238;-41
2021/07/15 13:59:46;;;;;;;1.63;1.23;;;;;;;;;;3578714;40;20243;-40
2021/07/15 14:02:19;;;;;;;3.00;1.45;;;;;;;;;;3584716;40;20253;-40
2021/07/15 14:04:49;;;;;;;1.40;1.30;;;;;;;;;;3588472;40;20649;-53
2021/07/15 14:07:35;;;;;;;2.17;0.85;;;;;;;;;;3588957;40;20294;-41
2021/07/15 14:10:09;;;;;;;0.85;0.70;;;;;;;;;;3588617;40;20261;-41
2021/07/15 14:12:37;;;;;;;1.48;1.02;;;;;;;;;;3588662;40;20235;-43
2021/07/15 14:15:25;;;;;;;2.83;1.52;;;;;;;;;;3588654;40;20258;-41
2021/07/15 14:18:12;;;;;;;3.28;1.25;;;;;;;;;;3588874;40;20264;-42
2021/07/15 14:20:41;;;;;;;1.35;0.95;;;;;;;;;;3588783;40;20311;-40
2021/07/15 14:23:16;;;;;;;1.27;0.95;;;;;;;;;;3588758;40;20238;-40
2021/07/15 14:25:49;;;;;;;1.02;0.90;;;;;;;;;;3588718;40;20234;-40
2021/07/15 14:28:17;;;;;;;1.13;1.02;;;;;;;;;;3589102;40;20238;-41
2021/07/15 14:30:45;;;;;;;1.40;0.85;;;;;;;;;;3588505;40;20230;-41
2021/07/15 14:33:12;;;;;;;1.27;0.73;;;;;;;;;;3589202;40;20253;-41
2021/07/15 14:35:41;;;;;;;2.67;1.15;;;;;;;;;;3585994;40;20331;-44
2021/07/15 14:38:10;;;;;;;2.42;1.05;;;;;;;;;;3593807;40;20265;-41
2021/07/15 14:40:37;;;;;;;0.70;0.70;;;;;;;;;;3592316;40;20233;-41
2021/07/15 14:43:05;;;;;;;1.90;0.80;;;;;;;;;;3590500;40;20242;-42
2021/07/15 14:45:32;;;;;;;0.82;0.80;;;;;;;;;;3588499;40;20250;-41
2021/07/15 14:48:06;;;;;;;1.92;0.90;;;;;;;;;;3588376;40;20327;-42
2021/07/15 14:50:33;;;;;;;1.90;1.15;;;;;;;;;;3588593;40;20245;-41
2021/07/15 14:53:20;;;;;;;1.65;0.98;;;;;;;;;;3581208;40;20283;-43
2021/07/15 14:55:54;;;;;;;1.15;1.05;;;;;;;;;;3578506;40;20245;-43
2021/07/15 14:58:22;;;;;;;1.17;0.90;;;;;;;;;;3578283;40;20235;-43
2021/07/15 15:01:08;;;;;;;0.75;0.75;;;;;;;;;;3578465;40;20241;-44
2021/07/15 15:03:41;;;;;;;2.13;1.20;;;;;;;;;;3586908;40;20248;-41
2021/07/15 15:06:08;;;;;;;1.17;0.80;;;;;;;;;;3588508;40;20277;-41
2021/07/15 15:08:43;;;;;;;0.80;0.80;;;;;;;;;;3588337;40;20288;-42
2021/07/15 15:11:10;;;;;;;1.38;0.93;;;;;;;;;;3588880;40;20246;-42
2021/07/15 15:13:38;;;;;;;1.38;0.63;;;;;;;;;;3596154;40;20233;-41
2021/07/15 15:16:23;;;;;;;1.98;0.68;;;;;;;;;;3593600;40;20246;-41